createdAt,value
2022-12-22T00:01:23.130Z,88.81
2022-12-22T00:04:29.735Z,88.61
2022-12-22T00:07:34.291Z,88.74
2022-12-22T00:10:38.914Z,88.84
2022-12-22T00:13:43.377Z,89.17
2022-12-22T00:16:57.109Z,90.46
2022-12-22T00:20:01.721Z,90.96
2022-12-22T00:23:05.923Z,89.60
2022-12-22T00:26:09.734Z,89.80
2022-12-22T00:29:14.371Z,91.33
2022-12-22T00:32:19.815Z,89.55
2022-12-22T00:35:24.559Z,91.96
2022-12-22T00:38:40.233Z,91.26
2022-12-22T00:41:44.026Z,90.25
2022-12-22T00:44:47.952Z,90.22
2022-12-22T00:47:52.480Z,91.38
2022-12-22T00:50:57.216Z,90.55
2022-12-22T00:54:01.703Z,90.37
2022-12-22T00:57:06.484Z,89.75
2022-12-22T01:00:13.664Z,89.58
2022-12-22T01:03:18.149Z,90.51
2022-12-22T01:06:22.760Z,91.02
2022-12-22T01:09:29.475Z,90.95
2022-12-22T01:12:45.645Z,89.98
2022-12-22T01:15:50.345Z,91.31
2022-12-22T01:18:54.807Z,90.27
2022-12-22T01:21:59.411Z,91.60
2022-12-22T01:25:04.136Z,90.55
2022-12-22T01:28:07.881Z,90.06
2022-12-22T01:31:12.249Z,89.14
2022-12-22T01:34:19.406Z,88.54
2022-12-22T01:37:23.855Z,89.08
2022-12-22T01:40:39.009Z,89.29
2022-12-22T01:43:46.718Z,90.25
2022-12-22T01:47:00.264Z,89.00
2022-12-22T01:50:05.167Z,88.51
2022-12-22T01:53:18.023Z,87.52
2022-12-22T01:56:25.135Z,86.96
2022-12-22T01:59:29.436Z,87.80
2022-12-22T02:02:35.713Z,88.72
2022-12-22T02:05:40.249Z,90.24
2022-12-22T02:08:51.948Z,89.36
2022-12-22T02:11:52.211Z,88.62
2022-12-22T02:15:26.183Z,88.21
2022-12-22T02:18:42.348Z,88.84
2022-12-22T02:21:55.265Z,88.02
2022-12-22T02:25:10.570Z,89.49
2022-12-22T02:28:15.438Z,89.95
2022-12-22T02:31:19.825Z,88.25
2022-12-22T02:34:33.142Z,89.08
2022-12-22T02:38:18.252Z,88.08
2022-12-22T02:41:50.217Z,88.03
2022-12-22T02:45:20.785Z,88.66
2022-12-22T02:48:35.815Z,88.95
2022-12-22T02:51:45.896Z,89.84
2022-12-22T02:54:51.698Z,89.34
2022-12-22T02:57:55.807Z,89.63
2022-12-22T03:00:59.556Z,87.94
2022-12-22T03:04:03.773Z,88.94
2022-12-22T03:07:07.823Z,88.52
2022-12-22T03:10:11.979Z,87.79
2022-12-22T03:13:19.528Z,87.83
2022-12-22T03:16:24.195Z,87.75
2022-12-22T03:19:28.682Z,88.06
2022-12-22T03:22:32.971Z,88.46
2022-12-22T03:25:37.039Z,88.33
2022-12-22T03:28:26.612Z,88.13
2022-12-22T03:31:12.473Z,89.63
2022-12-22T03:33:58.243Z,88.44
2022-12-22T03:36:43.567Z,88.53
2022-12-22T03:39:29.084Z,88.89
2022-12-22T03:42:32.802Z,88.92
2022-12-22T03:45:36.723Z,87.66
2022-12-22T03:48:22.148Z,86.94
2022-12-22T03:51:08.107Z,86.86
2022-12-22T03:53:53.467Z,86.60
2022-12-22T03:56:39.798Z,86.47
2022-12-22T03:59:25.099Z,86.57
2022-12-22T04:02:10.740Z,86.24
2022-12-22T04:04:56.638Z,87.03
2022-12-22T04:07:42.270Z,86.05
2022-12-22T04:10:46.171Z,85.56
2022-12-22T04:13:31.753Z,86.29
2022-12-22T04:16:17.056Z,88.04
2022-12-22T04:19:03.079Z,88.49
2022-12-22T04:21:48.347Z,89.47
2022-12-22T04:24:33.824Z,87.78
2022-12-22T04:27:19.301Z,86.59
2022-12-22T04:30:10.440Z,88.44
2022-12-22T04:32:55.910Z,89.50
2022-12-22T04:35:41.340Z,89.73
2022-12-22T04:38:26.669Z,89.30
2022-12-22T04:41:12.625Z,88.00
2022-12-22T04:43:58.107Z,88.30
2022-12-22T04:46:43.949Z,88.73
2022-12-22T04:49:29.407Z,88.61
2022-12-22T04:52:14.805Z,88.43
2022-12-22T04:55:00.417Z,88.08
2022-12-22T04:57:45.833Z,87.97
2022-12-22T05:00:31.334Z,88.15
2022-12-22T05:03:16.849Z,86.99
2022-12-22T05:06:02.625Z,86.50
2022-12-22T05:08:48.089Z,87.54
2022-12-22T05:11:33.582Z,87.43
2022-12-22T05:14:18.962Z,86.88
2022-12-22T05:17:04.544Z,86.23
2022-12-22T05:19:50.423Z,86.11
2022-12-22T05:22:35.963Z,87.14
2022-12-22T05:25:22.068Z,86.69
2022-12-22T05:28:07.527Z,87.53
2022-12-22T05:30:53.662Z,87.32
2022-12-22T05:33:39.447Z,87.45
2022-12-22T05:36:25.083Z,86.52
2022-12-22T05:39:10.690Z,87.17
2022-12-22T05:41:56.422Z,86.42
2022-12-22T05:44:41.829Z,86.35
2022-12-22T05:47:27.092Z,86.95
2022-12-22T05:50:17.698Z,85.59
2022-12-22T05:53:03.732Z,85.26
2022-12-22T05:55:49.301Z,86.20
2022-12-22T05:58:35.361Z,85.44
2022-12-22T06:01:20.808Z,85.47
2022-12-22T06:04:06.254Z,85.82
2022-12-22T06:06:55.048Z,86.28
2022-12-22T06:09:40.768Z,85.72
2022-12-22T06:12:26.302Z,86.19
2022-12-22T06:15:13.352Z,86.79
2022-12-22T06:17:59.576Z,87.42
2022-12-22T06:20:51.813Z,86.70
2022-12-22T06:23:37.664Z,86.40
2022-12-22T06:26:23.714Z,85.26
2022-12-22T06:29:09.574Z,86.14
2022-12-22T06:31:55.621Z,87.20
2022-12-22T06:34:41.477Z,86.60
2022-12-22T06:37:27.267Z,87.86
2022-12-22T06:40:13.994Z,87.94
2022-12-22T06:43:10.086Z,88.42
2022-12-22T06:45:56.135Z,87.53
2022-12-22T06:48:42.039Z,87.07
2022-12-22T06:51:27.380Z,85.33
2022-12-22T06:54:12.868Z,84.82
2022-12-22T06:56:58.321Z,84.84
2022-12-22T06:59:44.234Z,85.44
2022-12-22T07:02:31.575Z,87.65
2022-12-22T07:05:17.288Z,87.50
2022-12-22T07:08:08.020Z,87.01
2022-12-22T07:11:00.505Z,85.62
2022-12-22T07:13:46.761Z,84.72
2022-12-22T07:16:32.243Z,85.28
2022-12-22T07:19:18.032Z,86.00
2022-12-22T07:22:03.651Z,84.95
2022-12-22T07:24:50.325Z,84.39
2022-12-22T07:27:36.172Z,84.96
2022-12-22T07:30:21.794Z,86.65
2022-12-22T07:33:07.535Z,86.92
2022-12-22T07:36:15.473Z,85.86
2022-12-22T07:39:00.887Z,85.53
2022-12-22T07:42:05.108Z,84.92
2022-12-22T07:44:50.750Z,86.33
2022-12-22T07:47:36.186Z,86.87
2022-12-22T07:50:28.209Z,85.30
2022-12-22T07:53:13.689Z,85.33
2022-12-22T07:56:06.061Z,86.11
2022-12-22T07:58:51.524Z,85.00
2022-12-22T08:01:37.618Z,84.96
2022-12-22T08:04:23.620Z,84.81
2022-12-22T08:07:09.385Z,85.52
2022-12-22T08:09:54.742Z,85.12
2022-12-22T08:12:40.425Z,85.06
2022-12-22T08:15:26.308Z,84.66
2022-12-22T08:18:12.243Z,86.13
2022-12-22T08:20:57.708Z,85.08
2022-12-22T08:23:43.273Z,86.03
2022-12-22T08:26:41.761Z,85.32
2022-12-22T08:29:46.265Z,83.23
2022-12-22T08:32:31.706Z,81.98
2022-12-22T08:35:18.416Z,83.86
2022-12-22T08:38:05.675Z,83.54
2022-12-22T08:40:51.334Z,83.02
2022-12-22T08:43:36.799Z,81.39
2022-12-22T08:46:22.318Z,81.69
2022-12-22T08:49:07.910Z,82.06
2022-12-22T08:51:54.569Z,80.32
2022-12-22T08:54:40.529Z,80.13
2022-12-22T08:57:25.980Z,81.24
2022-12-22T09:00:13.660Z,82.15
2022-12-22T09:02:59.060Z,82.95
2022-12-22T09:05:44.920Z,81.10
2022-12-22T09:08:30.842Z,80.90
2022-12-22T09:11:17.056Z,80.48
2022-12-22T09:14:04.334Z,79.85
2022-12-22T09:16:50.790Z,79.43
2022-12-22T09:19:36.417Z,74.71
2022-12-22T09:22:28.111Z,73.07
2022-12-22T09:25:14.726Z,71.01
2022-12-22T09:28:00.386Z,71.63
2022-12-22T09:30:53.369Z,70.57
2022-12-22T09:33:39.178Z,73.48
2022-12-22T09:36:29.627Z,74.92
2022-12-22T09:39:15.991Z,70.43
2022-12-22T09:42:01.609Z,68.52
2022-12-22T09:44:50.657Z,66.46
2022-12-22T09:47:39.599Z,66.32
2022-12-22T09:50:26.940Z,62.01
2022-12-22T09:53:23.618Z,61.74
2022-12-22T09:56:15.223Z,58.88
2022-12-22T09:59:00.958Z,65.48
2022-12-22T10:02:23.216Z,65.47
2022-12-22T10:05:18.009Z,66.71
2022-12-22T10:08:29.035Z,62.97
2022-12-22T10:11:19.029Z,65.83
2022-12-22T10:14:04.321Z,66.57
2022-12-22T10:16:50.044Z,62.20
2022-12-22T10:19:35.834Z,61.40
2022-12-22T10:22:32.457Z,65.16
2022-12-22T10:29:00.768Z,70.44
2022-12-22T10:32:21.355Z,68.46
2022-12-22T10:35:07.757Z,68.60
2022-12-22T10:37:53.784Z,68.88
2022-12-22T10:40:45.956Z,72.16
2022-12-22T10:43:37.961Z,71.49
2022-12-22T10:46:51.815Z,74.67
2022-12-22T10:49:46.101Z,75.43
2022-12-22T10:52:33.130Z,77.64
2022-12-22T10:55:29.845Z,77.86
2022-12-22T10:58:21.308Z,78.37
2022-12-22T11:01:07.019Z,78.34
2022-12-22T11:03:52.906Z,77.39
2022-12-22T11:06:38.405Z,79.10
2022-12-22T11:09:35.341Z,79.87
2022-12-22T11:12:21.374Z,79.72
2022-12-22T11:15:35.143Z,79.03
2022-12-22T11:18:35.558Z,79.03
2022-12-22T11:21:36.067Z,81.29
2022-12-22T11:24:52.084Z,80.96
2022-12-22T11:28:06.019Z,84.47
2022-12-22T11:31:12.714Z,84.80
2022-12-22T11:34:41.141Z,85.23
2022-12-22T11:37:56.532Z,85.50
2022-12-22T11:40:46.911Z,86.11
2022-12-22T11:43:54.003Z,85.88
2022-12-22T11:46:57.912Z,85.15
2022-12-22T11:50:59.174Z,84.37
2022-12-22T11:53:58.433Z,84.41
2022-12-22T11:57:23.236Z,84.60
2022-12-22T12:00:18.610Z,85.48
2022-12-22T12:03:32.051Z,86.78
2022-12-22T12:06:49.250Z,86.02
2022-12-22T12:10:23.454Z,86.53
2022-12-22T12:13:42.697Z,88.51
2022-12-22T12:17:09.340Z,88.79
2022-12-22T12:20:34.516Z,88.53
2022-12-22T12:24:05.917Z,90.76
2022-12-22T12:27:11.787Z,90.84
2022-12-22T12:33:33.580Z,92.80
2022-12-22T12:36:40.542Z,92.03
2022-12-22T12:40:19.574Z,91.44
2022-12-22T12:43:07.556Z,90.74
2022-12-22T12:45:56.611Z,91.32
2022-12-22T12:48:42.432Z,93.26
2022-12-22T12:51:50.183Z,92.76
2022-12-22T12:54:47.495Z,93.20
2022-12-22T12:57:48.650Z,93.21
2022-12-22T13:00:34.727Z,93.40
2022-12-22T13:06:49.982Z,93.53
2022-12-22T13:09:56.334Z,93.08
2022-12-22T13:12:55.165Z,92.67
2022-12-22T13:15:45.198Z,93.14
2022-12-22T13:18:33.885Z,92.92
2022-12-22T13:21:53.513Z,95.94
2022-12-22T13:24:48.835Z,94.59
2022-12-22T13:27:37.311Z,95.32
2022-12-22T13:30:23.876Z,95.36
2022-12-22T13:33:14.060Z,95.79
2022-12-22T13:36:01.146Z,94.05
2022-12-22T13:38:47.247Z,93.65
2022-12-22T13:41:34.428Z,94.39
2022-12-22T13:44:29.684Z,95.20
2022-12-22T13:47:15.747Z,94.11
2022-12-22T13:50:10.064Z,93.27
2022-12-22T13:52:58.111Z,94.41
2022-12-22T13:55:47.967Z,93.07
2022-12-22T13:58:40.682Z,92.93
2022-12-22T14:01:26.230Z,97.59
2022-12-22T14:04:13.954Z,94.78
2022-12-22T14:07:19.086Z,92.53
2022-12-22T14:10:06.115Z,90.75
2022-12-22T14:12:51.613Z,92.32
2022-12-22T14:15:37.807Z,91.91
2022-12-22T14:18:25.933Z,90.99
2022-12-22T14:21:12.619Z,91.46
2022-12-22T14:23:58.143Z,92.27
2022-12-22T14:26:44.102Z,91.73
2022-12-22T14:29:31.121Z,91.61
2022-12-22T14:32:42.598Z,90.90
2022-12-22T14:35:31.717Z,91.72
2022-12-22T14:38:26.293Z,92.69
2022-12-22T14:41:43.215Z,92.36
2022-12-22T14:44:30.079Z,93.45
2022-12-22T14:47:21.277Z,93.30
2022-12-22T14:50:26.427Z,93.36
2022-12-22T14:53:13.173Z,92.25
2022-12-22T14:55:58.769Z,92.46
2022-12-22T14:58:46.734Z,91.81
2022-12-22T15:01:32.380Z,93.45
2022-12-22T15:04:20.484Z,93.06
2022-12-22T15:07:54.412Z,92.62
2022-12-22T15:10:25.850Z,93.41
2022-12-22T15:13:21.383Z,94.44
2022-12-22T15:16:10.048Z,92.36
2022-12-22T15:18:55.443Z,93.33
2022-12-22T15:21:41.064Z,92.42
2022-12-22T15:24:26.575Z,92.65
2022-12-22T15:27:12.034Z,91.69
2022-12-22T15:29:57.350Z,92.02
2022-12-22T15:32:43.926Z,91.91
2022-12-22T15:35:34.932Z,92.03
2022-12-22T15:38:23.345Z,92.66
2022-12-22T15:41:08.840Z,92.06
2022-12-22T15:43:57.769Z,91.68
2022-12-22T15:46:51.461Z,92.79
2022-12-22T15:49:36.967Z,94.01
2022-12-22T15:52:22.795Z,93.56
2022-12-22T15:55:14.801Z,93.29
2022-12-22T15:58:00.549Z,92.48
2022-12-22T16:00:46.823Z,91.73
2022-12-22T16:03:33.064Z,91.79
2022-12-22T16:06:19.745Z,91.67
2022-12-22T16:09:27.355Z,92.62
2022-12-22T16:12:17.610Z,93.38
2022-12-22T16:15:03.758Z,93.86
2022-12-22T16:17:52.100Z,93.29
2022-12-22T16:20:42.492Z,93.08
2022-12-22T16:23:29.390Z,92.53
2022-12-22T16:26:19.768Z,93.01
2022-12-22T16:29:05.082Z,92.99
2022-12-22T16:31:50.555Z,92.98
2022-12-22T16:34:36.509Z,93.62
2022-12-22T16:37:22.129Z,94.58
2022-12-22T16:40:10.066Z,93.03
2022-12-22T16:46:24.533Z,92.88
2022-12-22T16:49:13.769Z,92.71
2022-12-22T16:52:00.132Z,91.53
2022-12-22T16:54:49.286Z,92.40
2022-12-22T16:57:38.103Z,92.10
2022-12-22T17:00:32.199Z,92.52
2022-12-22T17:03:24.840Z,92.14
2022-12-22T17:06:11.154Z,92.22
2022-12-22T17:08:57.067Z,92.99
2022-12-22T17:11:46.246Z,94.34
2022-12-22T17:14:39.106Z,92.69
2022-12-22T17:17:32.057Z,92.77
2022-12-22T17:20:26.386Z,93.83
2022-12-22T17:23:31.057Z,92.61
2022-12-22T17:26:22.583Z,94.08
2022-12-22T17:29:17.905Z,92.85
2022-12-22T17:32:03.663Z,92.38
2022-12-22T17:34:49.741Z,92.22
2022-12-22T17:37:35.420Z,91.95
2022-12-22T17:40:28.727Z,92.35
2022-12-22T17:43:19.912Z,92.92
2022-12-22T17:46:06.668Z,92.17
2022-12-22T17:48:52.298Z,91.35
2022-12-22T17:51:38.296Z,91.47
2022-12-22T17:54:26.463Z,92.11
2022-12-22T17:57:29.871Z,91.24
2022-12-22T18:00:30.163Z,91.42
2022-12-22T18:03:15.969Z,90.96
2022-12-22T18:06:01.825Z,90.74
2022-12-22T18:08:47.744Z,91.03
2022-12-22T18:11:34.245Z,91.68
2022-12-22T18:14:22.683Z,91.22
2022-12-22T18:17:34.908Z,92.18
2022-12-22T18:20:24.032Z,90.84
2022-12-22T18:23:27.201Z,91.08
2022-12-22T18:26:14.440Z,90.70
2022-12-22T18:29:01.910Z,90.32
2022-12-22T18:31:47.679Z,89.72
2022-12-22T18:34:33.629Z,89.71
2022-12-22T18:37:19.373Z,90.01
2022-12-22T18:40:06.354Z,89.87
2022-12-22T18:42:53.290Z,89.46
2022-12-22T18:45:39.731Z,89.82
2022-12-22T18:48:25.282Z,89.83
2022-12-22T18:51:23.488Z,90.35
2022-12-22T18:54:36.454Z,90.21
2022-12-22T18:57:22.075Z,89.87
2022-12-22T19:00:14.091Z,90.54
2022-12-22T19:03:02.411Z,90.71
2022-12-22T19:05:49.123Z,89.90
2022-12-22T19:08:37.845Z,89.39
2022-12-22T19:11:33.620Z,90.38
2022-12-22T19:14:21.609Z,90.19
2022-12-22T19:17:27.290Z,88.92
2022-12-22T19:20:21.217Z,88.96
2022-12-22T19:23:07.076Z,89.41
2022-12-22T19:26:08.360Z,92.85
2022-12-22T19:29:03.164Z,89.50
2022-12-22T19:31:48.932Z,89.82
2022-12-22T19:34:34.872Z,89.84
2022-12-22T19:37:20.715Z,89.95
2022-12-22T19:40:06.982Z,89.58
2022-12-22T19:42:56.117Z,90.05
2022-12-22T19:45:41.814Z,90.45
2022-12-22T19:48:27.892Z,91.09
2022-12-22T19:51:17.576Z,92.46
2022-12-22T19:54:04.036Z,91.11
2022-12-22T19:56:54.431Z,92.20
2022-12-22T19:59:43.998Z,91.45
2022-12-22T20:02:33.459Z,90.16
2022-12-22T20:05:30.325Z,90.14
2022-12-22T20:08:16.562Z,90.23
2022-12-22T20:11:02.325Z,90.15
2022-12-22T20:13:48.541Z,90.00
2022-12-22T20:16:34.181Z,90.33
2022-12-22T20:19:20.091Z,90.97
2022-12-22T20:22:06.165Z,90.79
2022-12-22T20:24:54.544Z,91.85
2022-12-22T20:27:40.261Z,91.37
2022-12-22T20:30:30.071Z,90.86
2022-12-22T20:33:17.969Z,91.26
2022-12-22T20:36:15.547Z,90.39
2022-12-22T20:39:02.139Z,90.85
2022-12-22T20:41:53.014Z,91.18
2022-12-22T20:44:39.409Z,90.93
2022-12-22T20:47:45.853Z,91.78
2022-12-22T20:50:34.554Z,91.35
2022-12-22T20:53:21.064Z,90.99
2022-12-22T20:56:38.397Z,90.83
2022-12-22T20:59:24.805Z,91.21
2022-12-22T21:02:24.520Z,90.04
2022-12-22T21:05:10.629Z,90.49
2022-12-22T21:07:57.456Z,90.96
2022-12-22T21:10:44.937Z,90.58
2022-12-22T21:13:30.672Z,89.88
2022-12-22T21:16:23.888Z,90.31
2022-12-22T21:19:18.011Z,91.03
2022-12-22T21:22:04.044Z,91.10
2022-12-22T21:24:49.493Z,91.76
2022-12-22T21:27:37.206Z,90.94
2022-12-22T21:30:28.474Z,91.17
2022-12-22T21:33:14.402Z,92.18
2022-12-22T21:36:03.044Z,91.40
2022-12-22T21:38:51.929Z,91.63
2022-12-22T21:41:55.903Z,91.34
2022-12-22T21:44:41.472Z,91.82
2022-12-22T21:47:26.821Z,91.57
2022-12-22T21:50:28.747Z,90.79
2022-12-22T21:53:19.842Z,91.85
2022-12-22T21:56:18.264Z,91.52
2022-12-22T21:59:04.319Z,91.43
2022-12-22T22:01:53.047Z,91.36
2022-12-22T22:04:39.114Z,91.14
2022-12-22T22:07:25.084Z,91.06
2022-12-22T22:10:11.255Z,91.01
2022-12-22T22:12:57.514Z,90.69
2022-12-22T22:15:43.515Z,91.33
2022-12-22T22:18:29.304Z,90.26
2022-12-22T22:21:16.803Z,90.55
2022-12-22T22:24:02.436Z,90.21
2022-12-22T22:26:49.277Z,89.72
2022-12-22T22:29:36.143Z,90.21
2022-12-22T22:32:21.591Z,89.62
2022-12-22T22:35:07.384Z,89.36
2022-12-22T22:37:53.176Z,89.50
2022-12-22T22:40:42.097Z,89.46
2022-12-22T22:43:29.416Z,89.69
2022-12-22T22:46:15.017Z,89.74
2022-12-22T22:49:01.450Z,89.78
2022-12-22T22:51:48.748Z,90.04
2022-12-22T22:54:34.669Z,89.42
2022-12-22T22:57:19.954Z,89.46
2022-12-22T23:00:07.857Z,89.71
2022-12-22T23:02:53.495Z,89.45
2022-12-22T23:05:39.148Z,89.78
2022-12-22T23:08:24.592Z,89.96
2022-12-22T23:11:15.303Z,88.93
2022-12-22T23:14:01.396Z,89.65
2022-12-22T23:16:48.727Z,89.77
2022-12-22T23:19:34.471Z,89.67
2022-12-22T23:22:20.093Z,89.47
2022-12-22T23:25:05.939Z,89.16
2022-12-22T23:27:51.540Z,89.94
2022-12-22T23:30:42.756Z,90.12
2022-12-22T23:33:30.329Z,89.64
2022-12-22T23:36:16.016Z,89.62
2022-12-22T23:39:01.515Z,89.55
2022-12-22T23:41:46.928Z,89.02
2022-12-22T23:44:32.497Z,88.66
2022-12-22T23:47:17.879Z,88.38
2022-12-22T23:50:03.612Z,88.02
2022-12-22T23:52:50.619Z,87.02
2022-12-22T23:55:36.300Z,87.30
2022-12-22T23:58:22.700Z,86.63
